createdAt,value
2022-10-13T00:00:16.408Z,7.94
2022-10-13T00:01:16.420Z,7.78
2022-10-13T00:02:16.706Z,8.39
2022-10-13T00:03:16.362Z,8.11
2022-10-13T00:04:16.360Z,8.11
2022-10-13T00:05:16.354Z,8.28
2022-10-13T00:06:16.363Z,8.28
2022-10-13T00:07:16.368Z,8.39
2022-10-13T00:08:16.358Z,8.28
2022-10-13T00:09:16.361Z,7.94
2022-10-13T00:10:16.368Z,8.28
2022-10-13T00:11:16.382Z,8.28
2022-10-13T00:12:16.795Z,8.39
2022-10-13T00:13:16.369Z,8.28
2022-10-13T00:14:16.359Z,8.39
2022-10-13T00:15:16.369Z,8.28
2022-10-13T00:16:16.401Z,8.28
2022-10-13T00:17:16.364Z,8.11
2022-10-13T00:18:16.364Z,8.39
2022-10-13T00:19:16.365Z,8.28
2022-10-13T00:20:16.365Z,8.39
2022-10-13T00:21:16.372Z,8.39
2022-10-13T00:22:16.693Z,8.39
2022-10-13T00:23:16.369Z,8.39
2022-10-13T00:24:16.362Z,8.11
2022-10-13T00:25:16.370Z,8.5
2022-10-13T00:26:16.370Z,8.39
2022-10-13T00:27:16.370Z,8.11
2022-10-13T00:28:16.408Z,8.11
2022-10-13T00:29:16.366Z,8.39
2022-10-13T00:30:16.362Z,8.39
2022-10-13T00:31:16.375Z,8.5
2022-10-13T00:32:16.716Z,8.39
2022-10-13T00:33:16.373Z,8.39
2022-10-13T00:34:16.371Z,7.94
2022-10-13T00:35:16.367Z,8.11
2022-10-13T00:36:16.372Z,8.11
2022-10-13T00:37:16.376Z,8.11
2022-10-13T00:38:16.375Z,8.39
2022-10-13T00:39:16.372Z,8.5
2022-10-13T00:40:16.366Z,8.39
2022-10-13T00:41:16.375Z,8.39
2022-10-13T00:42:16.624Z,8.11
2022-10-13T00:43:16.378Z,8.39
2022-10-13T00:44:16.373Z,8.39
2022-10-13T00:45:16.375Z,8.5
2022-10-13T00:46:16.373Z,8.39
2022-10-13T00:47:16.373Z,8.11
2022-10-13T00:48:16.455Z,8.39
2022-10-13T00:49:16.379Z,7.78
2022-10-13T00:50:16.375Z,8.28
2022-10-13T00:51:16.374Z,8.28
2022-10-13T00:52:16.584Z,8.5
2022-10-13T00:53:16.383Z,8.28
2022-10-13T00:54:16.382Z,8.5
2022-10-13T00:55:16.371Z,8.39
2022-10-13T00:56:16.375Z,8.5
2022-10-13T00:57:16.380Z,8.28
2022-10-13T00:58:16.378Z,8.5
2022-10-13T00:59:16.382Z,8.39
2022-10-13T01:00:16.383Z,8.5
2022-10-13T01:01:16.419Z,8.5
2022-10-13T01:02:16.695Z,8.5
2022-10-13T01:03:16.386Z,8.39
2022-10-13T01:04:16.409Z,8.39
2022-10-13T01:05:16.385Z,8.39
2022-10-13T01:06:18.757Z,8.39
2022-10-13T01:07:16.373Z,8.11
2022-10-13T01:08:16.377Z,8.39
2022-10-13T01:09:16.383Z,8.11
2022-10-13T01:10:16.380Z,7.94
2022-10-13T01:11:16.386Z,8.28
2022-10-13T01:12:16.722Z,8.39
2022-10-13T01:13:16.383Z,8.39
2022-10-13T01:14:16.392Z,8.39
2022-10-13T01:15:16.379Z,8.39
2022-10-13T01:16:16.386Z,8.39
2022-10-13T01:17:16.393Z,8.11
2022-10-13T01:18:16.387Z,8.5
2022-10-13T01:19:16.385Z,8.5
2022-10-13T01:20:16.411Z,8.39
2022-10-13T01:21:16.390Z,8.39
2022-10-13T01:22:16.725Z,8.5
2022-10-13T01:23:16.384Z,8.39
2022-10-13T01:24:16.383Z,8.39
2022-10-13T01:25:16.389Z,8.39
2022-10-13T01:26:16.384Z,8.39
2022-10-13T01:27:16.394Z,8.5
2022-10-13T01:28:16.397Z,8.39
2022-10-13T01:29:16.381Z,8.28
2022-10-13T01:30:16.389Z,8.39
2022-10-13T01:31:16.392Z,8.5
2022-10-13T01:32:16.715Z,8.5
2022-10-13T01:33:16.391Z,8.5
2022-10-13T01:34:16.386Z,8.5
2022-10-13T01:35:16.385Z,8.61
2022-10-13T01:36:16.417Z,8.78
2022-10-13T01:37:16.383Z,8.78
2022-10-13T01:38:16.398Z,8.78
2022-10-13T01:39:16.387Z,8.61
2022-10-13T01:40:16.385Z,8.78
2022-10-13T01:41:16.389Z,8.78
2022-10-13T01:42:16.761Z,8.78
2022-10-13T01:43:16.398Z,8.78
2022-10-13T01:44:16.396Z,8.78
2022-10-13T01:45:16.391Z,8.78
2022-10-13T01:46:16.403Z,8.78
2022-10-13T01:47:16.394Z,8.78
2022-10-13T01:48:16.387Z,8.61
2022-10-13T01:49:16.394Z,8.61
2022-10-13T01:50:16.397Z,8.78
2022-10-13T01:51:16.386Z,8.78
2022-10-13T01:52:16.711Z,8.78
2022-10-13T01:53:16.383Z,8.78
2022-10-13T01:54:16.390Z,8.61
2022-10-13T01:55:16.385Z,8.78
2022-10-13T01:56:16.392Z,8.5
2022-10-13T01:57:16.391Z,8.61
2022-10-13T01:58:16.399Z,8.78
2022-10-13T01:59:16.402Z,8.78
2022-10-13T02:00:16.400Z,8.78
2022-10-13T02:01:16.390Z,8.78
2022-10-13T02:02:16.748Z,8.78
2022-10-13T02:03:16.397Z,8.94
2022-10-13T02:04:16.395Z,8.61
2022-10-13T02:05:16.389Z,8.61
2022-10-13T02:06:16.393Z,8.5
2022-10-13T02:07:16.396Z,8.61
2022-10-13T02:08:16.426Z,8.61
2022-10-13T02:09:16.395Z,8.94
2022-10-13T02:10:16.395Z,8.78
2022-10-13T02:11:16.384Z,8.61
2022-10-13T02:12:16.737Z,8.61
2022-10-13T02:13:16.397Z,8.78
2022-10-13T02:14:16.389Z,8.94
2022-10-13T02:15:16.404Z,8.78
2022-10-13T02:16:16.395Z,8.61
2022-10-13T02:17:16.395Z,8.78
2022-10-13T02:18:16.398Z,8.78
2022-10-13T02:19:16.393Z,8.61
2022-10-13T02:20:16.400Z,8.5
2022-10-13T02:21:16.396Z,8.78
2022-10-13T02:22:16.754Z,8.78
2022-10-13T02:23:16.397Z,8.78
2022-10-13T02:24:16.417Z,8.78
2022-10-13T02:25:16.394Z,8.94
2022-10-13T02:26:16.398Z,8.78
2022-10-13T02:27:16.403Z,8.78
2022-10-13T02:28:16.441Z,8.78
2022-10-13T02:29:16.400Z,8.78
2022-10-13T02:30:16.399Z,8.78
2022-10-13T02:31:16.399Z,8.5
2022-10-13T02:32:16.687Z,8.78
2022-10-13T02:33:16.399Z,8.78
2022-10-13T02:34:16.401Z,8.78
2022-10-13T02:35:16.399Z,8.61
2022-10-13T02:36:16.403Z,8.78
2022-10-13T02:37:16.403Z,8.61
2022-10-13T02:38:16.404Z,8.78
2022-10-13T02:39:16.402Z,8.78
2022-10-13T02:40:16.423Z,8.61
2022-10-13T02:41:16.404Z,8.94
2022-10-13T02:42:16.398Z,8.61
2022-10-13T02:43:16.402Z,8.61
2022-10-13T02:44:16.401Z,8.78
2022-10-13T02:45:16.405Z,8.78
2022-10-13T02:46:16.398Z,8.94
2022-10-13T02:47:16.399Z,8.61
2022-10-13T02:48:16.409Z,8.94
2022-10-13T02:49:16.405Z,8.61
2022-10-13T02:50:16.402Z,8.78
2022-10-13T02:51:16.408Z,8.78
2022-10-13T02:52:16.597Z,8.78
2022-10-13T02:53:16.410Z,8.94
2022-10-13T02:54:16.404Z,8.78
2022-10-13T02:55:16.409Z,8.78
2022-10-13T02:56:16.432Z,8.94
2022-10-13T02:57:16.404Z,8.61
2022-10-13T02:58:16.408Z,8.78
2022-10-13T02:59:16.410Z,8.78
2022-10-13T03:00:16.440Z,8.78
2022-10-13T03:01:16.411Z,8.94
2022-10-13T03:02:16.450Z,8.78
2022-10-13T03:03:16.417Z,8.78
2022-10-13T03:04:16.410Z,8.78
2022-10-13T03:05:16.412Z,8.78
2022-10-13T03:06:16.406Z,8.94
2022-10-13T03:07:16.407Z,8.78
2022-10-13T03:08:16.418Z,8.94
2022-10-13T03:09:16.407Z,8.78
2022-10-13T03:10:16.407Z,8.78
2022-10-13T03:11:16.410Z,8.94
2022-10-13T03:12:16.527Z,8.78
2022-10-13T03:13:16.411Z,8.94
2022-10-13T03:14:16.417Z,8.78
2022-10-13T03:15:16.418Z,9.06
2022-10-13T03:16:16.414Z,8.94
2022-10-13T03:17:16.412Z,8.78
2022-10-13T03:18:16.417Z,8.78
2022-10-13T03:19:16.414Z,8.61
2022-10-13T03:20:16.415Z,8.78
2022-10-13T03:21:16.413Z,8.5
2022-10-13T03:22:16.470Z,8.39
2022-10-13T03:23:16.415Z,8.5
2022-10-13T03:24:16.420Z,8.61
2022-10-13T03:25:16.420Z,8.61
2022-10-13T03:26:16.421Z,8.61
2022-10-13T03:27:16.420Z,8.61
2022-10-13T03:28:16.456Z,8.61
2022-10-13T03:29:16.419Z,8.61
2022-10-13T03:30:16.439Z,8.61
2022-10-13T03:31:16.421Z,8.78
2022-10-13T03:32:16.441Z,8.78
2022-10-13T03:33:16.421Z,8.61
2022-10-13T03:34:16.426Z,8.78
2022-10-13T03:35:16.420Z,8.61
2022-10-13T03:36:16.415Z,8.39
2022-10-13T03:37:16.426Z,8.61
2022-10-13T03:38:16.419Z,8.78
2022-10-13T03:39:16.425Z,8.61
2022-10-13T03:40:16.421Z,8.78
2022-10-13T03:41:16.431Z,8.39
2022-10-13T03:42:16.482Z,8.78
2022-10-13T03:43:16.424Z,8.78
2022-10-13T03:44:16.528Z,8.78
2022-10-13T03:45:16.423Z,8.78
2022-10-13T03:46:16.423Z,8.61
2022-10-13T03:47:16.421Z,8.78
2022-10-13T03:48:16.429Z,8.61
2022-10-13T03:49:16.427Z,8.78
2022-10-13T03:50:16.425Z,8.61
2022-10-13T03:51:16.438Z,8.78
2022-10-13T03:52:16.585Z,8.61
2022-10-13T03:53:16.433Z,8.61
2022-10-13T03:54:16.422Z,8.61
2022-10-13T03:55:16.432Z,8.78
2022-10-13T03:56:16.439Z,8.5
2022-10-13T03:57:16.430Z,8.78
2022-10-13T03:58:16.440Z,8.61
2022-10-13T03:59:16.432Z,8.78
2022-10-13T04:00:16.444Z,8.78
2022-10-13T04:01:16.425Z,8.78
2022-10-13T04:02:16.425Z,8.78
2022-10-13T04:03:16.427Z,8.78
2022-10-13T04:04:16.422Z,8.78
2022-10-13T04:05:16.433Z,8.78
2022-10-13T04:06:16.430Z,8.61
2022-10-13T04:07:16.433Z,8.78
2022-10-13T04:08:16.428Z,8.61
2022-10-13T04:09:16.430Z,8.78
2022-10-13T04:10:16.429Z,8.78
2022-10-13T04:11:16.431Z,8.78
2022-10-13T04:12:20.557Z,8.78
2022-10-13T04:13:16.434Z,8.78
2022-10-13T04:14:16.437Z,8.78
2022-10-13T04:15:16.497Z,8.78
2022-10-13T04:16:16.459Z,8.61
2022-10-13T04:17:16.437Z,8.78
2022-10-13T04:18:16.429Z,8.78
2022-10-13T04:19:16.426Z,8.78
2022-10-13T04:20:16.461Z,8.78
2022-10-13T04:21:16.432Z,8.78
2022-10-13T04:22:16.465Z,8.61
2022-10-13T04:23:16.432Z,8.78
2022-10-13T04:24:16.432Z,8.78
2022-10-13T04:25:16.441Z,8.78
2022-10-13T04:26:16.430Z,8.78
2022-10-13T04:27:16.437Z,8.78
2022-10-13T04:28:16.442Z,8.78
2022-10-13T04:29:16.428Z,8.78
2022-10-13T04:30:16.453Z,8.61
2022-10-13T04:31:16.428Z,8.78
2022-10-13T04:32:16.630Z,8.78
2022-10-13T04:33:16.429Z,8.78
2022-10-13T04:34:16.427Z,8.78
2022-10-13T04:35:16.437Z,8.61
2022-10-13T04:36:16.433Z,8.61
2022-10-13T04:37:16.437Z,8.78
2022-10-13T04:38:16.427Z,8.78
2022-10-13T04:39:16.425Z,8.78
2022-10-13T04:40:16.434Z,8.78
2022-10-13T04:41:16.437Z,8.61
2022-10-13T04:42:16.436Z,8.61
2022-10-13T04:43:16.432Z,8.94
2022-10-13T04:44:16.434Z,8.61
2022-10-13T04:45:16.437Z,8.78
2022-10-13T04:46:16.433Z,8.78
2022-10-13T04:47:16.436Z,8.61
2022-10-13T04:48:16.460Z,8.78
2022-10-13T04:49:16.435Z,8.78
2022-10-13T04:50:16.441Z,8.61
2022-10-13T04:51:16.439Z,8.78
2022-10-13T04:52:16.435Z,8.78
2022-10-13T04:53:19.136Z,8.61
2022-10-13T04:54:16.430Z,8.39
2022-10-13T04:55:16.431Z,8.78
2022-10-13T04:56:16.426Z,8.61
2022-10-13T04:57:16.436Z,8.78
2022-10-13T04:58:16.439Z,8.61
2022-10-13T04:59:16.437Z,8.61
2022-10-13T05:00:16.433Z,8.78
2022-10-13T05:01:20.450Z,8.78
2022-10-13T05:02:16.600Z,8.61
2022-10-13T05:03:16.439Z,8.78
2022-10-13T05:04:16.471Z,8.78
2022-10-13T05:05:16.437Z,8.61
2022-10-13T05:06:16.440Z,8.78
2022-10-13T05:07:18.199Z,8.78
2022-10-13T05:08:16.433Z,8.78
2022-10-13T05:09:16.440Z,8.61
2022-10-13T05:10:16.435Z,8.78
2022-10-13T05:11:16.438Z,8.61
2022-10-13T05:12:16.440Z,8.61
2022-10-13T05:13:16.449Z,8.61
2022-10-13T05:14:16.431Z,8.61
2022-10-13T05:15:16.439Z,8.78
2022-10-13T05:16:16.445Z,8.78
2022-10-13T05:17:16.453Z,8.78
2022-10-13T05:18:16.441Z,8.61
2022-10-13T05:19:16.440Z,8.61
2022-10-13T05:20:16.468Z,8.78
2022-10-13T05:21:16.443Z,8.78
2022-10-13T05:22:16.459Z,8.61
2022-10-13T05:23:16.450Z,8.5
2022-10-13T05:24:16.446Z,8.61
2022-10-13T05:25:16.443Z,8.78
2022-10-13T05:26:16.439Z,8.61
2022-10-13T05:27:16.437Z,8.78
2022-10-13T05:28:16.502Z,8.61
2022-10-13T05:29:16.455Z,8.78
2022-10-13T05:30:16.451Z,8.78
2022-10-13T05:31:16.450Z,8.39
2022-10-13T05:32:16.472Z,8.61
2022-10-13T05:33:16.452Z,8.78
2022-10-13T05:34:16.449Z,8.61
2022-10-13T05:35:16.447Z,8.61
2022-10-13T05:36:16.586Z,8.78
2022-10-13T05:37:16.449Z,8.78
2022-10-13T05:38:16.447Z,8.78
2022-10-13T05:39:16.449Z,8.78
2022-10-13T05:40:16.453Z,8.61
2022-10-13T05:41:16.443Z,8.61
2022-10-13T05:42:16.511Z,8.61
2022-10-13T05:43:16.449Z,8.78
2022-10-13T05:44:16.452Z,8.61
2022-10-13T05:45:16.454Z,8.78
2022-10-13T05:46:16.457Z,8.5
2022-10-13T05:47:16.455Z,8.78
2022-10-13T05:48:16.458Z,8.61
2022-10-13T05:49:16.447Z,8.78
2022-10-13T05:50:16.453Z,8.61
2022-10-13T05:51:16.465Z,8.61
2022-10-13T05:52:16.628Z,8.78
2022-10-13T05:53:16.457Z,8.61
2022-10-13T05:54:16.451Z,8.78
2022-10-13T05:55:16.450Z,8.78
2022-10-13T05:56:16.453Z,8.61
2022-10-13T05:57:16.453Z,8.78
2022-10-13T05:58:16.462Z,8.78
2022-10-13T05:59:16.475Z,8.78
2022-10-13T06:00:16.455Z,8.78
2022-10-13T06:01:16.454Z,8.94
2022-10-13T06:02:16.484Z,8.78
2022-10-13T06:03:16.459Z,8.94
2022-10-13T06:04:16.455Z,8.78
2022-10-13T06:05:16.457Z,8.78
2022-10-13T06:06:16.459Z,8.78
2022-10-13T06:07:16.454Z,8.78
2022-10-13T06:08:16.482Z,8.78
2022-10-13T06:09:16.462Z,8.78
2022-10-13T06:10:16.461Z,8.94
2022-10-13T06:11:16.455Z,8.78
2022-10-13T06:12:16.459Z,8.94
2022-10-13T06:13:16.457Z,8.94
2022-10-13T06:14:16.460Z,8.78
2022-10-13T06:15:16.467Z,8.78
2022-10-13T06:16:16.458Z,8.94
2022-10-13T06:17:16.455Z,8.94
2022-10-13T06:18:16.462Z,9.06
2022-10-13T06:19:16.457Z,8.94
2022-10-13T06:20:16.460Z,8.94
2022-10-13T06:21:16.460Z,8.94
2022-10-13T06:22:16.477Z,9.06
2022-10-13T06:23:16.446Z,9.06
2022-10-13T06:24:16.487Z,9.22
2022-10-13T06:25:16.462Z,9.22
2022-10-13T06:26:16.466Z,9.06
2022-10-13T06:27:16.456Z,9.06
2022-10-13T06:28:16.484Z,9.22
2022-10-13T06:29:16.455Z,9.22
2022-10-13T06:30:16.468Z,9.06
2022-10-13T06:31:16.467Z,8.94
2022-10-13T06:32:16.460Z,9.06
2022-10-13T06:33:16.461Z,9.22
2022-10-13T06:34:16.465Z,9.22
2022-10-13T06:35:16.463Z,9.06
2022-10-13T06:36:16.465Z,9.22
2022-10-13T06:37:16.468Z,9.06
2022-10-13T06:38:16.465Z,9.22
2022-10-13T06:39:16.468Z,9.22
2022-10-13T06:40:16.586Z,9.06
2022-10-13T06:41:16.464Z,9.06
2022-10-13T06:42:16.556Z,9.39
2022-10-13T06:43:16.461Z,9.22
2022-10-13T06:44:16.465Z,8.78
2022-10-13T06:45:16.465Z,8.78
2022-10-13T06:46:16.468Z,9.22
2022-10-13T06:47:16.472Z,9.22
2022-10-13T06:48:16.464Z,9.22
2022-10-13T06:49:16.473Z,9.39
2022-10-13T06:50:16.473Z,9.39
2022-10-13T06:51:16.476Z,9.39
2022-10-13T06:52:16.577Z,9.06
2022-10-13T06:53:16.469Z,8.78
2022-10-13T06:54:16.472Z,9.22
2022-10-13T06:55:16.475Z,8.94
2022-10-13T06:56:16.496Z,9.22
2022-10-13T06:57:16.483Z,9.06
2022-10-13T06:58:16.469Z,8.94
2022-10-13T06:59:16.484Z,9.22
2022-10-13T07:00:16.481Z,9.39
2022-10-13T07:01:16.478Z,9.39
2022-10-13T07:02:16.504Z,9.22
2022-10-13T07:03:16.476Z,9.22
2022-10-13T07:04:16.469Z,9.39
2022-10-13T07:05:16.473Z,9.22
2022-10-13T07:06:16.473Z,9.5
2022-10-13T07:07:16.477Z,9.22
2022-10-13T07:08:16.470Z,9.06
2022-10-13T07:09:16.477Z,8.94
2022-10-13T07:10:16.479Z,9.06
2022-10-13T07:11:16.760Z,9.22
2022-10-13T07:12:16.593Z,9.39
2022-10-13T07:13:16.503Z,9.39
2022-10-13T07:14:16.481Z,9.5
2022-10-13T07:15:16.481Z,9.5
2022-10-13T07:16:16.484Z,9.5
2022-10-13T07:17:16.547Z,9.22
2022-10-13T07:18:16.481Z,9.5
2022-10-13T07:19:16.484Z,9.22
2022-10-13T07:20:16.479Z,9.39
2022-10-13T07:21:16.479Z,9.22
2022-10-13T07:22:16.489Z,9.39
2022-10-13T07:23:16.486Z,9.67
2022-10-13T07:24:16.487Z,9.06
2022-10-13T07:25:16.487Z,9.06
2022-10-13T07:26:16.487Z,9.5
2022-10-13T07:27:16.489Z,9.06
2022-10-13T07:28:16.534Z,9.67
2022-10-13T07:29:16.493Z,9.67
2022-10-13T07:30:16.484Z,9.39
2022-10-13T07:31:16.490Z,9.67
2022-10-13T07:32:16.482Z,9.22
2022-10-13T07:33:16.489Z,9.5
2022-10-13T07:34:16.492Z,9.06
2022-10-13T07:35:16.485Z,9.06
2022-10-13T07:36:16.498Z,9.67
2022-10-13T07:37:16.524Z,9.67
2022-10-13T07:38:16.485Z,9.67
2022-10-13T07:39:16.485Z,9.67
2022-10-13T07:40:16.485Z,9.78
2022-10-13T07:41:16.486Z,9.67
2022-10-13T07:42:16.493Z,9.67
2022-10-13T07:43:16.486Z,9.67
2022-10-13T07:44:16.619Z,9.67
2022-10-13T07:45:16.489Z,9.67
2022-10-13T07:46:16.492Z,9.67
2022-10-13T07:47:16.580Z,9.39
2022-10-13T07:48:16.516Z,9.5
2022-10-13T07:49:16.554Z,9.67
2022-10-13T07:50:16.484Z,9.67
2022-10-13T07:51:16.486Z,9.5
2022-10-13T07:52:16.505Z,9.22
2022-10-13T07:53:16.487Z,9.5
2022-10-13T07:54:16.490Z,9.39
2022-10-13T07:55:16.497Z,9.67
2022-10-13T07:56:16.492Z,9.67
2022-10-13T07:57:16.489Z,9.78
2022-10-13T07:58:16.490Z,9.5
2022-10-13T07:59:16.491Z,10.11
2022-10-13T08:00:16.527Z,10.11
2022-10-13T08:01:16.590Z,9.78
2022-10-13T08:02:16.689Z,9.94
2022-10-13T08:03:16.497Z,9.67
2022-10-13T08:04:16.498Z,9.94
2022-10-13T08:05:16.501Z,10.11
2022-10-13T08:06:16.495Z,10.22
2022-10-13T08:07:16.898Z,10.11
2022-10-13T08:08:16.504Z,9.94
2022-10-13T08:09:16.496Z,10.11
2022-10-13T08:10:16.501Z,10.11
2022-10-13T08:11:16.879Z,10.11
2022-10-13T08:12:16.774Z,10.22
2022-10-13T08:13:16.506Z,10.22
2022-10-13T08:14:16.507Z,10.11
2022-10-13T08:15:16.506Z,10.11
2022-10-13T08:16:16.538Z,10.11
2022-10-13T08:17:16.625Z,9.78
2022-10-13T08:18:16.502Z,10.11
2022-10-13T08:19:16.500Z,10.22
2022-10-13T08:20:16.504Z,10.11
2022-10-13T08:22:16.512Z,10.22
2022-10-13T08:23:16.517Z,10.39
2022-10-13T08:24:16.519Z,10.22
2022-10-13T08:25:16.514Z,10.56
2022-10-13T08:26:16.508Z,10.56
2022-10-13T08:27:16.826Z,10.39
2022-10-13T08:28:16.523Z,10.56
2022-10-13T08:29:21.736Z,10.56
2022-10-13T08:30:16.563Z,10.56
2022-10-13T08:31:16.677Z,10.67
2022-10-13T08:32:16.702Z,10.67
2022-10-13T08:33:16.517Z,10.67
2022-10-13T08:34:16.517Z,10.56
2022-10-13T08:35:16.517Z,10.39
2022-10-13T08:36:16.513Z,10.56
2022-10-13T08:37:16.509Z,10.11
2022-10-13T08:38:16.517Z,10.11
2022-10-13T08:39:16.503Z,10.22
2022-10-13T08:40:16.524Z,10.22
2022-10-13T08:41:16.526Z,9.94
2022-10-13T08:42:16.678Z,10.22
2022-10-13T08:43:16.524Z,9.94
2022-10-13T08:45:39.553Z,10.11
2022-10-13T08:46:16.522Z,10.11
2022-10-13T08:47:16.525Z,9.94
2022-10-13T08:48:16.545Z,9.67
2022-10-13T08:49:16.524Z,9.94
2022-10-13T08:50:16.588Z,10.22
2022-10-13T08:51:16.513Z,10.56
2022-10-13T08:52:16.699Z,10.39
2022-10-13T08:53:16.520Z,10.56
2022-10-13T08:54:16.526Z,11
2022-10-13T08:55:16.525Z,10.83
2022-10-13T08:56:16.516Z,10.83
2022-10-13T08:57:16.572Z,10.83
2022-10-13T08:58:16.518Z,11
2022-10-13T08:59:16.530Z,10.67
2022-10-13T09:00:16.580Z,11.11
2022-10-13T09:01:16.570Z,11
2022-10-13T09:02:16.528Z,10.83
2022-10-13T09:03:16.542Z,11
2022-10-13T09:04:16.557Z,11
2022-10-13T09:05:16.530Z,10.67
2022-10-13T09:06:16.532Z,10.83
2022-10-13T09:07:16.585Z,10.83
2022-10-13T09:08:16.533Z,10.83
2022-10-13T09:09:16.533Z,11
2022-10-13T09:10:16.603Z,10.67
2022-10-13T09:11:16.550Z,11.28
2022-10-13T09:12:16.594Z,10.83
2022-10-13T09:13:16.545Z,11.11
2022-10-13T09:14:16.533Z,11.28
2022-10-13T09:15:16.544Z,11.28
2022-10-13T09:16:16.541Z,10.56
2022-10-13T09:17:16.550Z,10.56
2022-10-13T09:18:16.538Z,10.83
2022-10-13T09:19:16.540Z,10.39
2022-10-13T09:20:16.699Z,10.22
2022-10-13T09:21:16.536Z,10.67
2022-10-13T09:22:16.686Z,11
2022-10-13T09:23:16.546Z,11.44
2022-10-13T09:24:16.554Z,11.11
2022-10-13T09:25:16.539Z,11.11
2022-10-13T09:26:16.549Z,11
2022-10-13T09:27:16.543Z,11
2022-10-13T09:28:16.556Z,11.44
2022-10-13T09:29:16.557Z,11.44
2022-10-13T09:30:16.539Z,11.44
2022-10-13T09:31:16.544Z,10.67
2022-10-13T09:32:16.546Z,10.39
2022-10-13T09:33:16.554Z,10.56
2022-10-13T09:34:16.549Z,10.39
2022-10-13T09:35:16.546Z,10.11
2022-10-13T09:36:16.619Z,10.22
2022-10-13T09:37:16.553Z,10.22
2022-10-13T09:38:16.555Z,10.11
2022-10-13T09:39:16.544Z,10.39
2022-10-13T09:40:16.558Z,10.67
2022-10-13T09:41:16.558Z,10.11
2022-10-13T09:42:16.783Z,10.22
2022-10-13T09:43:16.540Z,9.94
2022-10-13T09:44:16.547Z,10.22
2022-10-13T09:45:16.558Z,10.11
2022-10-13T09:46:16.551Z,10.22
2022-10-13T09:47:16.552Z,10.56
2022-10-13T09:48:16.562Z,11
2022-10-13T09:49:16.547Z,11.44
2022-10-13T09:50:16.550Z,11.11
2022-10-13T09:51:16.552Z,11.28
2022-10-13T09:52:16.567Z,11.83
2022-10-13T09:53:16.555Z,11.83
2022-10-13T09:54:16.561Z,11.83
2022-10-13T09:55:16.558Z,11.83
2022-10-13T09:56:16.556Z,11.28
2022-10-13T09:57:16.543Z,11.11
2022-10-13T09:58:16.553Z,10.83
2022-10-13T09:59:16.559Z,11
2022-10-13T10:00:16.550Z,11.11
2022-10-13T10:01:16.558Z,11.61
2022-10-13T10:02:18.113Z,11.11
2022-10-13T10:03:16.558Z,11.44
2022-10-13T10:04:16.621Z,11.72
2022-10-13T10:05:16.553Z,11.83
2022-10-13T10:06:16.569Z,12.11
2022-10-13T10:07:16.591Z,12.28
2022-10-13T10:08:16.605Z,12.28
2022-10-13T10:09:16.555Z,11.94
2022-10-13T10:10:16.566Z,11.83
2022-10-13T10:11:16.556Z,11.83
2022-10-13T10:12:16.563Z,11.61
2022-10-13T10:13:16.561Z,11.61
2022-10-13T10:14:16.568Z,10.56
2022-10-13T10:15:16.554Z,11
2022-10-13T10:16:16.568Z,10.67
2022-10-13T10:17:16.776Z,10.83
2022-10-13T10:18:16.557Z,11.28
2022-10-13T10:19:16.565Z,11.28
2022-10-13T10:20:16.568Z,11.44
2022-10-13T10:21:16.580Z,11.44
2022-10-13T10:22:16.560Z,11.61
2022-10-13T10:23:16.574Z,11.83
2022-10-13T10:24:16.576Z,11.78
2022-10-13T10:25:16.558Z,11.28
2022-10-13T10:26:20.694Z,11.5
2022-10-13T10:27:16.666Z,12.11
2022-10-13T10:28:16.613Z,11.94
2022-10-13T10:29:16.560Z,12.11
2022-10-13T10:30:16.565Z,12.44
2022-10-13T10:31:16.567Z,12.89
2022-10-13T10:32:16.566Z,13.17
2022-10-13T10:33:16.566Z,13.5
2022-10-13T10:34:16.564Z,13.17
2022-10-13T10:35:16.561Z,13.06
2022-10-13T10:36:16.571Z,13.17
2022-10-13T10:37:18.798Z,13.06
2022-10-13T10:38:16.562Z,13.11
2022-10-13T10:39:16.562Z,13.17
2022-10-13T10:40:16.588Z,12.72
2022-10-13T10:41:16.568Z,12.78
2022-10-13T10:42:16.694Z,12.78
2022-10-13T10:43:16.570Z,13.33
2022-10-13T10:44:16.575Z,13.06
2022-10-13T10:45:16.570Z,12.94
2022-10-13T10:46:16.565Z,12.94
2022-10-13T10:47:18.537Z,12.94
2022-10-13T10:48:16.570Z,12.94
2022-10-13T10:49:16.574Z,12.5
2022-10-13T10:50:16.580Z,12.5
2022-10-13T10:51:16.568Z,13.22
2022-10-13T10:52:16.579Z,12.61
2022-10-13T10:53:16.567Z,12.78
2022-10-13T10:54:16.571Z,13.11
2022-10-13T10:55:16.560Z,12.78
2022-10-13T10:56:16.651Z,13.67
2022-10-13T10:57:16.596Z,14.11
2022-10-13T10:58:16.571Z,14
2022-10-13T10:59:16.573Z,13.39
2022-10-13T11:00:16.658Z,13.56
2022-10-13T11:01:16.630Z,13.39
2022-10-13T11:02:16.613Z,14.11
2022-10-13T11:03:16.570Z,13.56
2022-10-13T11:04:16.579Z,13.83
2022-10-13T11:05:16.578Z,13.56
2022-10-13T11:06:16.570Z,14.28
2022-10-13T11:07:16.571Z,13.83
2022-10-13T11:08:16.578Z,12.94
2022-10-13T11:09:16.578Z,12.94
2022-10-13T11:10:16.575Z,13.11
2022-10-13T11:11:16.569Z,13.39
2022-10-13T11:12:16.603Z,13.39
2022-10-13T11:13:16.576Z,13.39
2022-10-13T11:14:16.584Z,13.11
2022-10-13T11:15:16.580Z,13.56
2022-10-13T11:16:16.584Z,13.22
2022-10-13T11:17:16.583Z,13.22
2022-10-13T11:18:21.134Z,14
2022-10-13T11:19:16.573Z,14
2022-10-13T11:20:16.581Z,13.83
2022-10-13T11:21:16.580Z,13.56
2022-10-13T11:22:16.596Z,13.83
2022-10-13T11:23:16.582Z,13.22
2022-10-13T11:24:16.583Z,13.11
2022-10-13T11:25:16.586Z,13.39
2022-10-13T11:26:16.600Z,14.11
2022-10-13T11:27:16.586Z,14.61
2022-10-13T11:28:16.641Z,14.44
2022-10-13T11:29:16.592Z,14.11
2022-10-13T11:30:16.592Z,14.11
2022-10-13T11:31:16.588Z,14.11
2022-10-13T11:32:16.588Z,14
2022-10-13T11:33:16.587Z,13.83
2022-10-13T11:34:16.587Z,13.83
2022-10-13T11:35:16.588Z,14
2022-10-13T11:36:16.596Z,14.44
2022-10-13T11:37:16.591Z,14.89
2022-10-13T11:38:17.849Z,14.89
2022-10-13T11:39:16.633Z,14.44
2022-10-13T11:40:16.591Z,13.83
2022-10-13T11:41:16.604Z,14.44
2022-10-13T11:42:16.641Z,15.28
2022-10-13T11:43:16.594Z,16.06
2022-10-13T11:44:16.703Z,16.06
2022-10-13T11:45:16.602Z,16.56
2022-10-13T11:46:16.593Z,15.89
2022-10-13T11:47:16.611Z,15.28
2022-10-13T11:48:16.616Z,14.28
2022-10-13T11:49:16.593Z,14.28
2022-10-13T11:50:16.602Z,14.11
2022-10-13T11:51:16.753Z,14.61
2022-10-13T11:52:16.616Z,15.17
2022-10-13T11:53:16.601Z,15.06
2022-10-13T11:54:16.593Z,15.61
2022-10-13T11:55:16.596Z,15.17
2022-10-13T11:56:16.593Z,15.28
2022-10-13T11:57:16.596Z,15.61
2022-10-13T11:58:16.630Z,16.56
2022-10-13T11:59:16.600Z,16.56
2022-10-13T12:00:16.629Z,17.17
2022-10-13T12:01:16.598Z,16.56
2022-10-13T12:02:18.855Z,16.89
2022-10-13T12:03:16.732Z,16.56
2022-10-13T12:04:16.597Z,15.44
2022-10-13T12:05:16.606Z,15.44
2022-10-13T12:06:16.615Z,15.61
2022-10-13T12:07:16.603Z,15.78
2022-10-13T12:08:16.601Z,16.56
2022-10-13T12:09:16.604Z,16.89
2022-10-13T12:10:16.604Z,17.5
2022-10-13T12:11:16.607Z,17.33
2022-10-13T12:12:16.677Z,17.33
2022-10-13T12:13:16.610Z,17.5
2022-10-13T12:14:16.604Z,17.5
2022-10-13T12:15:16.604Z,17.67
2022-10-13T12:16:16.625Z,17.5
2022-10-13T12:17:18.506Z,17.5
2022-10-13T12:18:16.613Z,17
2022-10-13T12:19:16.607Z,17.5
2022-10-13T12:20:16.608Z,17.5
2022-10-13T12:21:16.606Z,17.33
2022-10-13T12:22:16.614Z,17
2022-10-13T12:23:16.610Z,16.89
2022-10-13T12:24:16.603Z,17
2022-10-13T12:25:16.610Z,17.17
2022-10-13T12:26:16.622Z,17.17
2022-10-13T12:27:16.620Z,17
2022-10-13T12:28:16.647Z,17
2022-10-13T12:29:16.618Z,16.56
2022-10-13T12:30:16.613Z,17
2022-10-13T12:31:16.608Z,17.33
2022-10-13T12:32:16.639Z,17
2022-10-13T12:33:16.611Z,16.56
2022-10-13T12:34:16.610Z,17.17
2022-10-13T12:35:16.620Z,17
2022-10-13T12:36:16.614Z,17.17
2022-10-13T12:37:16.674Z,17.33
2022-10-13T12:38:16.612Z,18.44
2022-10-13T12:39:16.611Z,19
2022-10-13T12:40:16.632Z,18.94
2022-10-13T12:41:16.626Z,19.06
2022-10-13T12:42:16.627Z,18.61
2022-10-13T12:43:16.616Z,18.61
2022-10-13T12:44:16.617Z,18.78
2022-10-13T12:45:16.621Z,18.17
2022-10-13T12:46:16.617Z,17.83
2022-10-13T12:47:16.749Z,17.83
2022-10-13T12:48:16.735Z,17.67
2022-10-13T12:49:16.710Z,17.67
2022-10-13T12:50:16.630Z,17.5
2022-10-13T12:51:16.622Z,18.28
2022-10-13T12:52:16.682Z,18.28
2022-10-13T12:53:16.625Z,18.17
2022-10-13T12:54:16.624Z,18
2022-10-13T12:55:16.628Z,17.78
2022-10-13T12:56:16.621Z,17.22
2022-10-13T12:57:16.631Z,17.83
2022-10-13T12:58:16.624Z,17.67
2022-10-13T12:59:16.628Z,16.89
2022-10-13T13:00:16.619Z,17.22
2022-10-13T13:01:16.705Z,17.22
2022-10-13T13:02:16.659Z,17.5
2022-10-13T13:03:16.637Z,17.22
2022-10-13T13:04:16.676Z,17.22
2022-10-13T13:05:16.640Z,16.44
2022-10-13T13:06:16.635Z,16.44
2022-10-13T13:07:16.629Z,16.72
2022-10-13T13:08:16.633Z,17.5
2022-10-13T13:09:16.637Z,17.5
2022-10-13T13:10:16.625Z,17.22
2022-10-13T13:11:16.637Z,17.67
2022-10-13T13:12:16.647Z,17.83
2022-10-13T13:13:16.639Z,17.22
2022-10-13T13:14:16.642Z,16.89